Terminal Aerodrome Forecast
Issued by NWS Mt. Holly, NJ

Home | Current Version | Previous Version | Text Only | Print | Product List | Glossary On
Versions: 1 2 3 4 5 6 7 8 9 10 11 12 13 14 15 16 17 18 19 20 21 22 23 24 25 26
662
FTUS41 KPHI 220537
TAFACY
TAF
KACY 220537Z 2206/2306 24004KT 1/4SM FG VV003
     FM220800 VRB02KT 1/4SM -RA FG OVC002
     FM221200 05005KT 1/4SM FG OVC002
     FM221600 05010KT 2SM BR OVC005
     FM222200 05015KT 1SM -RA BR OVC002
     FM230400 06015G27KT 2SM BR OVC003=

USA.gov is the U.S. government's official web portal to all federal, state and local government web resources and services.